Time;durP1;ratioP1;P1;durP2;ratioP2;P2;SDS_P1;SDS_P2;PMS_P1;PMS_P2;Temp;Humidity;BMP_temperature;BMP_pressure;BME280_temperature;BME280_humidity;BME280_pressure;Samples;Min_cycle;Max_cycle;Signal;HPM_P1;HPM_P2
2020/12/02 00:01:49;;;;;;;1.95;0.90;;;21.00;50.70;;;;;;5093648;28;20554;-52
2020/12/02 00:04:17;;;;;;;0.80;0.70;;;21.00;50.70;;;;;;5099313;28;20046;-57
2020/12/02 00:06:43;;;;;;;0.98;0.80;;;21.00;50.70;;;;;;5098162;28;20032;-52
2020/12/02 00:09:21;;;;;;;1.38;1.00;;;21.00;50.70;;;;;;5089437;28;20093;-55
2020/12/02 00:11:48;;;;;;;3.22;1.10;;;21.00;50.80;;;;;;5079393;28;20032;-54
2020/12/02 00:14:29;;;;;;;2.08;1.08;;;20.90;50.70;;;;;;5090198;28;20047;-56
2020/12/02 00:16:55;;;;;;;1.27;0.80;;;20.90;50.70;;;;;;5083138;28;20124;-47
2020/12/02 00:19:22;;;;;;;2.13;1.08;;;20.90;50.70;;;;;;5075100;28;20047;-57
2020/12/02 00:22:02;;;;;;;2.55;0.90;;;20.90;50.80;;;;;;5083332;28;20178;-52
2020/12/02 00:24:27;;;;;;;1.42;1.02;;;20.90;50.80;;;;;;5077221;28;20067;-55
2020/12/02 00:26:54;;;;;;;1.55;0.95;;;20.90;50.80;;;;;;5088580;28;20627;-53
2020/12/02 00:29:19;;;;;;;1.40;1.00;;;20.90;50.80;;;;;;5087605;28;20028;-56
2020/12/02 00:31:45;;;;;;;1.02;0.80;;;20.80;50.80;;;;;;5078937;28;20501;-52
2020/12/02 00:34:10;;;;;;;0.90;0.73;;;20.80;50.80;;;;;;5088538;28;20130;-53
2020/12/02 00:36:40;;;;;;;1.45;1.00;;;20.80;50.80;;;;;;5085086;28;20028;-52
2020/12/02 00:39:06;;;;;;;;;;;20.80;51.40;;;;;;5067567;28;20497;-55
2020/12/02 00:41:31;;;;;;;1.30;0.88;;;20.80;50.80;;;;;;5072185;28;20010;-54
2020/12/02 00:43:57;;;;;;;1.48;0.80;;;20.80;50.80;;;;;;5100793;28;20031;-50
2020/12/02 00:46:23;;;;;;;1.25;0.90;;;20.80;50.80;;;;;;5099721;28;20111;-58
2020/12/02 00:48:52;;;;;;;0.75;0.70;;;20.70;50.80;;;;;;5075863;28;20136;-49
2020/12/02 00:51:19;;;;;;;1.38;0.80;;;20.80;50.80;;;;;;5079668;28;20024;-49
2020/12/02 00:53:44;;;;;;;2.08;0.95;;;20.70;50.80;;;;;;5096442;28;20023;-57
2020/12/02 00:56:11;;;;;;;1.33;0.90;;;20.70;50.90;;;;;;5067071;28;20046;-55
2020/12/02 00:58:42;;;;;;;1.75;1.15;;;20.70;50.90;;;;;;5078522;28;20111;-52
2020/12/02 01:01:11;;;;;;;2.10;1.00;;;20.70;50.90;;;;;;5076826;28;20107;-55
2020/12/02 01:03:36;;;;;;;1.42;0.80;;;20.70;50.90;;;;;;5080194;28;20081;-52
2020/12/02 01:06:08;;;;;;;0.98;0.80;;;20.60;50.80;;;;;;5086877;28;20594;-52
2020/12/02 01:08:36;;;;;;;1.60;0.80;;;20.70;50.90;;;;;;5090308;28;20023;-55
2020/12/02 01:11:26;;;;;;;2.50;0.90;;;20.70;50.90;;;;;;5081674;28;20063;-52
2020/12/02 01:14:00;;;;;;;1.55;0.93;;;20.60;50.80;;;;;;5089739;28;20306;-51
2020/12/02 01:16:43;;;;;;;1.23;0.90;;;20.60;50.80;;;;;;5078142;28;20067;-50
2020/12/02 01:19:16;;;;;;;1.13;0.80;;;20.60;50.80;;;;;;5073981;28;20032;-49
2020/12/02 01:21:50;;;;;;;1.15;0.90;;;20.60;50.80;;;;;;5068167;28;20505;-53
2020/12/02 01:24:21;;;;;;;1.30;0.93;;;20.60;50.90;;;;;;5088708;28;20024;-52
2020/12/02 01:27:01;;;;;;;1.52;1.00;;;20.50;50.90;;;;;;5066919;28;20105;-51
2020/12/02 01:29:28;;;;;;;1.70;1.02;;;20.60;50.90;;;;;;5087660;28;20102;-53
2020/12/02 01:31:57;;;;;;;1.20;1.00;;;20.60;50.90;;;;;;5077387;28;20062;-56
2020/12/02 01:34:24;;;;;;;1.65;0.90;;;20.50;50.90;;;;;;5094283;28;20058;-55
2020/12/02 01:37:19;;;;;;;1.35;0.80;;;20.50;50.90;;;;;;5085210;28;20203;-57
2020/12/02 01:40:19;;;;;;;1.13;0.80;;;20.50;51.40;;;;;;5089843;28;20067;-52
2020/12/02 01:42:55;;;;;;;1.27;0.90;;;20.50;50.90;;;;;;5089569;28;20148;-54
2020/12/02 01:45:29;;;;;;;1.20;0.90;;;20.50;50.90;;;;;;5081588;28;20097;-54
2020/12/02 01:48:31;;;;;;;1.08;0.80;;;20.50;50.90;;;;;;5070212;28;20055;-54
2020/12/02 01:51:17;;;;;;;1.02;0.80;;;20.50;50.90;;;;;;5067053;28;20024;-54
2020/12/02 01:53:50;;;;;;;1.08;0.80;;;20.50;51.00;;;;;;5077568;28;20032;-51
2020/12/02 01:56:34;;;;;;;1.80;0.80;;;20.40;50.90;;;;;;5095354;28;20632;-55
2020/12/02 01:59:21;;;;;;;1.50;0.80;;;20.40;50.90;;;;;;5102879;28;20035;-57
2020/12/02 02:02:07;;;;;;;0.80;0.75;;;20.40;51.00;;;;;;5070464;28;20067;-55
2020/12/02 02:04:59;;;;;;;1.08;0.80;;;20.40;51.00;;;;;;5066842;28;20036;-54
2020/12/02 02:07:27;;;;;;;1.17;0.82;;;20.40;51.00;;;;;;5087987;28;20036;-54
2020/12/02 02:10:00;;;;;;;1.08;0.77;;;20.40;51.00;;;;;;5096591;28;20032;-51
2020/12/02 02:12:50;;;;;;;1.10;0.90;;;20.40;51.00;;;;;;5074325;28;20037;-50
2020/12/02 02:15:43;;;;;;;1.40;0.95;;;20.40;51.00;;;;;;5083972;28;20066;-53
2020/12/02 02:18:19;;;;;;;0.70;0.70;;;20.40;51.00;;;;;;5076897;28;20435;-51
2020/12/02 02:20:49;;;;;;;0.95;0.80;;;20.40;51.20;;;;;;5079098;28;20440;-53
2020/12/02 02:23:17;;;;;;;1.00;0.90;;;20.30;51.00;;;;;;5066796;28;20063;-56
2020/12/02 02:26:06;;;;;;;1.08;0.90;;;20.30;51.00;;;;;;5080187;28;20343;-55
2020/12/02 02:28:35;;;;;;;1.13;0.88;;;20.30;51.00;;;;;;5085729;28;20027;-52
2020/12/02 02:31:01;;;;;;;1.00;0.80;;;20.30;51.10;;;;;;5079546;28;20505;-51
2020/12/02 02:33:27;;;;;;;1.00;0.77;;;20.30;51.10;;;;;;5065671;28;20452;-53
2020/12/02 02:35:53;;;;;;;1.52;0.80;;;20.30;51.10;;;;;;5078647;28;20036;-53
2020/12/02 02:38:19;;;;;;;0.95;0.80;;;20.30;51.10;;;;;;5081177;28;20219;-52
2020/12/02 02:40:46;;;;;;;1.35;0.90;;;20.30;51.10;;;;;;5084848;28;20051;-52
2020/12/02 02:43:12;;;;;;;1.80;1.20;;;20.30;51.10;;;;;;5095082;28;20062;-56
2020/12/02 02:45:37;;;;;;;1.55;0.90;;;20.20;51.10;;;;;;5101773;28;20027;-52
2020/12/02 02:48:06;;;;;;;1.55;0.90;;;20.20;51.10;;;;;;5087930;28;20020;-53
2020/12/02 02:50:36;;;;;;;1.58;1.08;;;20.20;51.10;;;;;;5087011;28;20020;-52
2020/12/02 02:53:02;;;;;;;;;;;20.20;51.10;;;;;;5072480;28;20028;-55
2020/12/02 02:55:28;;;;;;;1.10;0.85;;;20.20;51.10;;;;;;5086745;28;20007;-54
2020/12/02 02:57:55;;;;;;;1.38;0.98;;;20.20;51.10;;;;;;5074674;28;20020;-51
2020/12/02 03:00:27;;;;;;;1.33;0.90;;;20.20;51.10;;;;;;5093589;28;20115;-55
2020/12/02 03:02:52;;;;;;;1.27;0.90;;;20.20;51.10;;;;;;5070360;28;20033;-54
2020/12/02 03:05:18;;;;;;;1.25;0.93;;;20.20;51.20;;;;;;5084585;28;20361;-56
2020/12/02 03:07:44;;;;;;;1.60;0.90;;;20.20;51.20;;;;;;5106330;28;20138;-55
2020/12/02 03:10:15;;;;;;;1.08;0.90;;;20.20;51.20;;;;;;5084611;28;20047;-51
2020/12/02 03:12:44;;;;;;;1.13;0.95;;;20.20;51.20;;;;;;5075312;28;20034;-55
2020/12/02 03:15:10;;;;;;;1.05;0.80;;;20.10;51.20;;;;;;5076720;28;20023;-49
2020/12/02 03:17:35;;;;;;;2.03;0.90;;;20.10;51.20;;;;;;5082713;28;20057;-53
2020/12/02 03:20:38;;;;;;;1.48;0.93;;;20.10;51.10;;;;;;5086069;28;20036;-51
2020/12/02 03:23:04;;;;;;;1.40;0.98;;;20.10;51.20;;;;;;5063626;28;20039;-50
2020/12/02 03:25:32;;;;;;;1.58;0.95;;;20.10;51.20;;;;;;5073367;28;20454;-56
2020/12/02 03:27:59;;;;;;;1.10;0.90;;;20.10;51.20;;;;;;5075871;28;20032;-55
2020/12/02 03:30:25;;;;;;;0.98;0.80;;;20.10;51.20;;;;;;5076589;28;20356;-56
2020/12/02 03:32:50;;;;;;;1.40;0.90;;;20.10;51.20;;;;;;5083184;28;20031;-51
2020/12/02 03:35:16;;;;;;;1.10;0.80;;;20.10;51.20;;;;;;5076446;28;20025;-52
2020/12/02 03:37:42;;;;;;;1.20;0.82;;;20.10;51.20;;;;;;5076716;28;20026;-52
2020/12/02 03:40:09;;;;;;;1.70;1.00;;;20.10;51.20;;;;;;5094784;28;20115;-56
2020/12/02 03:42:35;;;;;;;1.30;0.80;;;20.10;51.20;;;;;;5068132;28;20096;-56
2020/12/02 03:45:01;;;;;;;1.30;0.90;;;20.10;51.20;;;;;;5070867;28;20181;-54
2020/12/02 03:47:27;;;;;;;1.40;0.90;;;20.10;51.20;;;;;;5088514;28;20397;-54
2020/12/02 03:49:53;;;;;;;0.93;0.77;;;20.10;51.20;;;;;;5076715;28;20024;-54
2020/12/02 03:52:19;;;;;;;1.42;1.00;;;20.10;51.30;;;;;;5080175;28;20035;-52
2020/12/02 03:54:44;;;;;;;0.98;0.80;;;20.00;51.20;;;;;;5087528;28;20122;-57
2020/12/02 03:57:10;;;;;;;1.08;0.90;;;20.00;51.20;;;;;;5103399;28;20031;-54
2020/12/02 03:59:35;;;;;;;1.15;0.90;;;20.10;51.20;;;;;;5105170;28;20451;-52
2020/12/02 04:02:01;;;;;;;1.33;0.90;;;20.00;51.20;;;;;;5083302;28;20035;-58
2020/12/02 04:04:26;;;;;;;1.60;0.80;;;20.00;51.20;;;;;;5083770;28;20612;-53
2020/12/02 04:06:52;;;;;;;1.50;0.80;;;20.00;51.20;;;;;;5082635;28;20428;-54
2020/12/02 04:09:18;;;;;;;1.38;0.90;;;20.00;51.20;;;;;;5076940;28;20028;-53
2020/12/02 04:11:44;;;;;;;0.82;0.77;;;20.00;51.20;;;;;;5081541;28;20591;-56
2020/12/02 04:14:10;;;;;;;1.00;0.80;;;20.00;51.20;;;;;;5098750;28;20020;-54
2020/12/02 04:16:36;;;;;;;1.15;0.80;;;20.00;51.20;;;;;;5078893;28;20408;-56
2020/12/02 04:19:02;;;;;;;1.05;0.80;;;20.00;51.20;;;;;;5066973;28;20351;-49
2020/12/02 04:21:28;;;;;;;1.55;0.88;;;20.00;51.20;;;;;;5077923;28;20032;-54
2020/12/02 04:23:55;;;;;;;0.82;0.60;;;20.00;51.70;;;;;;5084498;28;20020;-55
2020/12/02 04:26:21;;;;;;;0.90;0.70;;;20.00;51.20;;;;;;5078374;28;20032;-56
2020/12/02 04:28:47;;;;;;;1.23;0.80;;;20.00;51.20;;;;;;5064647;28;20028;-58
2020/12/02 04:31:12;;;;;;;1.10;0.82;;;20.00;51.70;;;;;;5077589;28;20032;-56
2020/12/02 04:33:38;;;;;;;1.23;0.98;;;20.00;51.20;;;;;;5092372;28;20123;-52
2020/12/02 04:36:04;;;;;;;1.10;0.90;;;20.00;51.20;;;;;;5083304;28;20144;-52
2020/12/02 04:38:30;;;;;;;1.15;0.80;;;20.00;51.20;;;;;;5080366;28;20457;-55
2020/12/02 04:40:55;;;;;;;1.33;0.90;;;20.00;51.20;;;;;;5079636;28;20096;-52
2020/12/02 04:43:29;;;;;;;1.00;0.90;;;20.00;51.20;;;;;;5084721;28;20043;-56
2020/12/02 04:45:56;;;;;;;1.13;0.80;;;20.00;51.20;;;;;;5084741;28;20036;-56
2020/12/02 04:48:26;;;;;;;1.05;0.80;;;20.00;51.20;;;;;;5081524;28;20037;-57
2020/12/02 04:51:00;;;;;;;1.13;0.80;;;20.00;51.20;;;;;;5083212;28;20040;-53
2020/12/02 04:53:25;;;;;;;1.88;0.80;;;20.00;51.20;;;;;;5077587;28;20027;-55
2020/12/02 04:55:54;;;;;;;1.00;0.90;;;20.00;51.20;;;;;;5067541;28;20040;-56
2020/12/02 04:58:31;;;;;;;1.80;0.90;;;20.00;51.30;;;;;;5066106;28;20450;-55
2020/12/02 05:01:15;;;;;;;2.33;1.30;;;20.00;51.30;;;;;;5069088;28;20028;-54
2020/12/02 05:04:14;;;;;;;3.30;1.50;;;20.00;51.30;;;;;;5074259;28;20091;-55
2020/12/02 05:06:46;;;;;;;2.85;1.58;;;20.00;51.30;;;;;;5083734;28;20044;-52
2020/12/02 05:09:32;;;;;;;2.70;1.30;;;20.00;51.30;;;;;;5077592;28;20118;-56
2020/12/02 05:12:05;;;;;;;2.40;1.25;;;20.00;51.30;;;;;;5074711;28;20111;-54
2020/12/02 05:14:37;;;;;;;3.17;1.38;;;20.00;51.30;;;;;;5084712;28;20354;-53
2020/12/02 05:17:12;;;;;;;3.28;1.42;;;20.00;51.40;;;;;;5080683;28;20035;-56
2020/12/02 05:19:37;;;;;;;3.70;1.50;;;20.00;51.40;;;;;;5077555;28;20024;-57
2020/12/02 05:22:06;;;;;;;5.00;2.00;;;20.00;51.40;;;;;;5079130;28;20248;-54
2020/12/02 05:24:43;;;;;;;4.00;1.70;;;19.90;51.40;;;;;;5078154;28;20348;-58
2020/12/02 05:27:13;;;;;;;3.08;1.60;;;19.90;51.40;;;;;;5066707;28;20037;-56
2020/12/02 05:29:53;;;;;;;3.15;1.65;;;19.90;51.40;;;;;;5079032;28;20032;-54
2020/12/02 05:32:25;;;;;;;4.30;1.65;;;19.90;51.40;;;;;;5072669;28;20028;-52
2020/12/02 05:34:51;;;;;;;3.53;1.65;;;19.90;51.50;;;;;;5073785;28;20729;-54
2020/12/02 05:37:40;;;;;;;5.05;1.95;;;20.00;51.50;;;;;;5079048;28;20108;-51
2020/12/02 05:40:11;;;;;;;4.38;1.90;;;20.00;51.50;;;;;;5072662;28;20032;-52
2020/12/02 05:42:41;;;;;;;4.13;1.77;;;19.90;51.50;;;;;;5068898;28;20025;-56
2020/12/02 05:45:20;;;;;;;4.20;2.00;;;20.00;51.50;;;;;;5080782;28;20547;-50
2020/12/02 05:47:50;;;;;;;3.38;1.80;;;20.00;51.60;;;;;;5093364;28;20455;-54
2020/12/02 05:50:17;;;;;;;4.25;1.92;;;19.90;51.50;;;;;;5080532;28;20028;-53
2020/12/02 05:52:48;;;;;;;3.90;1.80;;;20.00;51.60;;;;;;5082363;28;20036;-53
2020/12/02 05:55:30;;;;;;;4.45;2.25;;;20.00;51.60;;;;;;5088837;28;20039;-56
2020/12/02 05:58:08;;;;;;;5.18;2.33;;;19.90;51.60;;;;;;5084748;28;20366;-54
2020/12/02 06:00:34;;;;;;;4.68;1.98;;;19.90;51.60;;;;;;5070111;28;20035;-57
2020/12/02 06:03:01;;;;;;;3.72;2.03;;;19.90;51.60;;;;;;5077138;28;20020;-54
2020/12/02 06:05:30;;;;;;;5.38;2.10;;;19.90;51.60;;;;;;5073662;28;20043;-53
2020/12/02 06:08:00;;;;;;;3.95;1.92;;;19.90;51.70;;;;;;5072138;28;20074;-54
2020/12/02 06:10:43;;;;;;;4.28;2.10;;;19.90;51.70;;;;;;5068559;28;20024;-55
2020/12/02 06:13:33;;;;;;;4.10;2.08;;;19.90;51.70;;;;;;5072630;28;20396;-59
2020/12/02 06:15:59;;;;;;;4.43;2.20;;;19.90;51.70;;;;;;5080044;28;20076;-56
2020/12/02 06:18:34;;;;;;;5.80;2.75;;;19.90;51.80;;;;;;5070083;28;20129;-53
2020/12/02 06:21:01;;;;;;;7.28;3.13;;;19.90;52.30;;;;;;5075087;28;20420;-53
2020/12/02 06:23:56;;;;;;;6.43;3.30;;;20.10;52.50;;;;;;5071363;28;20063;-50
2020/12/02 06:26:40;;;;;;;5.93;2.78;;;20.40;52.70;;;;;;5078601;28;20042;-58
2020/12/02 06:29:15;;;;;;;5.85;2.45;;;20.60;52.30;;;;;;5086875;28;20643;-53
2020/12/02 06:31:41;;;;;;;5.78;2.20;;;20.70;52.70;;;;;;5079579;28;20449;-55
2020/12/02 06:34:22;;;;;;;5.75;2.00;;;20.60;52.50;;;;;;5072604;28;20028;-55
2020/12/02 06:37:20;;;;;;;4.22;2.08;;;20.60;52.50;;;;;;5084120;28;20061;-54
2020/12/02 06:39:55;;;;;;;3.60;1.80;;;20.60;52.50;;;;;;5096198;28;20043;-58
2020/12/02 06:42:36;;;;;;;5.97;2.95;;;20.60;52.60;;;;;;5094771;28;20082;-51
2020/12/02 06:45:34;;;;;;;5.13;2.58;;;20.70;52.90;;;;;;5094373;28;20028;-54
2020/12/02 06:48:13;;;;;;;3.90;1.80;;;20.90;52.70;;;;;;5091113;28;20035;-54
2020/12/02 06:50:39;;;;;;;3.65;1.73;;;21.00;52.50;;;;;;5085625;28;20447;-58
2020/12/02 06:53:17;;;;;;;3.33;1.80;;;21.00;52.50;;;;;;5083892;28;20519;-52
2020/12/02 06:55:47;;;;;;;3.60;1.90;;;21.00;52.70;;;;;;5085251;28;20119;-54
2020/12/02 06:58:14;;;;;;;;;;;21.00;52.70;;;;;;5089948;28;20035;-49
2020/12/02 07:00:46;;;;;;;5.28;2.50;;;21.00;52.70;;;;;;5082225;28;19997;-59
2020/12/02 07:03:23;;;;;;;4.00;2.22;;;21.00;52.70;;;;;;5073579;28;20031;-58
2020/12/02 07:05:53;;;;;;;3.92;1.85;;;21.20;52.90;;;;;;5079929;28;20397;-55
2020/12/02 07:08:26;;;;;;;3.80;2.00;;;21.20;52.40;;;;;;5089156;28;20024;-54
2020/12/02 07:11:03;;;;;;;4.68;2.00;;;21.30;52.50;;;;;;5083734;28;20050;-57
2020/12/02 07:13:32;;;;;;;3.33;1.75;;;21.30;52.60;;;;;;5090223;28;20044;-53
2020/12/02 07:15:58;;;;;;;3.00;2.00;;;21.30;52.70;;;;;;5084343;28;20028;-54
2020/12/02 07:18:27;;;;;;;4.50;2.42;;;21.30;52.70;;;;;;5096543;28;20043;-54
2020/12/02 07:21:25;;;;;;;4.13;2.10;;;21.30;52.70;;;;;;5092731;28;20372;-55
2020/12/02 07:23:54;;;;;;;4.17;2.00;;;21.50;52.80;;;;;;5073460;28;20072;-51
2020/12/02 07:26:21;;;;;;;4.68;2.05;;;21.60;52.50;;;;;;5089423;28;20057;-55
2020/12/02 07:28:59;;;;;;;8.38;3.00;;;21.50;52.40;;;;;;5091830;28;20067;-54
2020/12/02 07:31:27;;;;;;;5.82;2.50;;;21.50;50.90;;;;;;5082095;28;20028;-61
2020/12/02 07:34:02;;;;;;;4.47;2.30;;;21.60;51.00;;;;;;5098288;28;20063;-54
2020/12/02 07:36:30;;;;;;;4.20;2.67;;;21.60;51.20;;;;;;5079057;28;20028;-55
2020/12/02 07:39:05;;;;;;;6.32;3.28;;;21.60;51.80;;;;;;5090135;28;20554;-55
2020/12/02 07:41:32;;;;;;;3.97;2.40;;;21.80;51.90;;;;;;5083302;28;20040;-58
2020/12/02 07:43:58;;;;;;;5.35;2.28;;;21.90;52.00;;;;;;5103668;28;20079;-54
2020/12/02 07:46:25;;;;;;;3.75;2.25;;;21.90;52.00;;;;;;5089403;28;20074;-55
2020/12/02 07:48:55;;;;;;;4.57;2.10;;;21.90;51.80;;;;;;5085723;28;20032;-52
2020/12/02 07:51:26;;;;;;;5.22;2.40;;;21.90;51.90;;;;;;5079454;28;20127;-52
2020/12/02 07:53:54;;;;;;;3.17;1.77;;;21.90;52.10;;;;;;5076950;28;20063;-54
2020/12/02 07:56:39;;;;;;;4.78;2.70;;;21.90;51.90;;;;;;5084510;28;20132;-54
2020/12/02 07:59:16;;;;;;;3.88;2.17;;;22.00;52.70;;;;;;5082233;28;20116;-55
2020/12/02 08:01:59;;;;;;;4.30;2.00;;;22.10;52.50;;;;;;5088576;28;20026;-54
2020/12/02 08:04:40;;;;;;;3.22;1.80;;;22.20;52.40;;;;;;5086040;28;20032;-55
2020/12/02 08:07:11;;;;;;;4.45;2.40;;;22.20;52.30;;;;;;5087106;28;20036;-56
2020/12/02 08:09:46;;;;;;;3.75;1.92;;;22.20;52.30;;;;;;5080808;28;20064;-51
2020/12/02 08:12:34;;;;;;;3.50;1.90;;;22.20;52.30;;;;;;5072395;28;20120;-53
2020/12/02 08:15:07;;;;;;;4.00;2.20;;;22.20;52.30;;;;;;5076166;28;20052;-51
2020/12/02 08:17:33;;;;;;;3.92;2.22;;;22.20;52.80;;;;;;5088376;28;20035;-56
2020/12/02 08:20:18;;;;;;;3.90;1.85;;;22.40;52.80;;;;;;5099471;28;20074;-56
2020/12/02 08:22:48;;;;;;;3.35;1.83;;;22.50;52.60;;;;;;5072817;28;20029;-58
2020/12/02 08:25:19;;;;;;;3.75;2.00;;;22.50;52.60;;;;;;5087233;28;20479;-55
2020/12/02 08:27:50;;;;;;;3.78;1.90;;;22.50;52.40;;;;;;5071897;28;20399;-54
2020/12/02 08:30:20;;;;;;;4.60;2.10;;;22.40;52.90;;;;;;5085495;28;20031;-52
2020/12/02 08:33:08;;;;;;;4.72;1.90;;;22.40;52.50;;;;;;5083014;28;20375;-53
2020/12/02 08:35:46;;;;;;;3.42;1.95;;;22.50;52.60;;;;;;5073252;28;20046;-54
2020/12/02 08:38:30;;;;;;;4.22;2.35;;;22.50;53.30;;;;;;5083198;28;20043;-51
2020/12/02 08:40:59;;;;;;;3.13;1.88;;;22.70;53.20;;;;;;5088788;28;20433;-50
2020/12/02 08:43:38;;;;;;;3.00;1.80;;;22.70;52.80;;;;;;5069173;28;20032;-53
2020/12/02 08:46:09;;;;;;;4.18;1.88;;;22.80;52.70;;;;;;5086563;28;20634;-53
2020/12/02 08:48:39;;;;;;;4.20;2.00;;;22.70;52.70;;;;;;5088625;28;20024;-53
2020/12/02 08:51:14;;;;;;;3.17;1.88;;;22.70;52.50;;;;;;5083746;27;20339;-53
2020/12/02 08:53:40;;;;;;;3.35;1.98;;;22.70;52.50;;;;;;5090027;28;20072;-58
2020/12/02 08:56:20;;;;;;;3.42;1.88;;;22.70;53.10;;;;;;5089129;28;20681;-57
2020/12/02 08:58:46;;;;;;;4.03;2.05;;;22.70;52.90;;;;;;5084607;28;20036;-54
2020/12/02 09:01:11;;;;;;;3.20;1.70;;;22.80;53.20;;;;;;5090137;28;20028;-55
2020/12/02 09:03:37;;;;;;;4.47;1.90;;;23.00;53.20;;;;;;5070121;28;20046;-54
2020/12/02 09:06:11;;;;;;;2.50;1.60;;;23.00;53.10;;;;;;5091314;28;20031;-56
2020/12/02 09:08:36;;;;;;;3.60;1.60;;;23.00;52.90;;;;;;5067389;28;20326;-57
2020/12/02 09:11:02;;;;;;;3.17;1.80;;;22.90;52.80;;;;;;5082701;28;20027;-54
2020/12/02 09:13:28;;;;;;;3.03;1.65;;;22.90;52.80;;;;;;5094677;28;20637;-54
2020/12/02 09:15:53;;;;;;;3.63;1.73;;;23.00;52.80;;;;;;5083821;28;20032;-53
2020/12/02 09:18:19;;;;;;;3.75;2.05;;;22.90;52.70;;;;;;5091217;28;20043;-55
2020/12/02 09:20:44;;;;;;;3.33;1.80;;;23.00;53.40;;;;;;5086166;28;20028;-50
2020/12/02 09:23:10;;;;;;;3.63;1.80;;;23.10;53.10;;;;;;5085586;28;20129;-52
2020/12/02 09:25:36;;;;;;;3.03;1.70;;;23.20;53.10;;;;;;5067107;28;20036;-51
2020/12/02 09:28:01;;;;;;;3.33;1.58;;;23.20;52.80;;;;;;5074842;28;20104;-54
2020/12/02 09:30:27;;;;;;;3.63;1.75;;;23.20;53.00;;;;;;5068871;28;20031;-53
2020/12/02 09:32:52;;;;;;;3.38;1.80;;;23.20;53.40;;;;;;5072770;28;20388;-49
2020/12/02 09:35:18;;;;;;;2.78;1.63;;;23.30;53.50;;;;;;5072187;28;20050;-53
2020/12/02 09:37:44;;;;;;;3.83;1.70;;;23.30;53.70;;;;;;5068785;28;20105;-52
2020/12/02 09:40:13;;;;;;;3.28;1.88;;;23.30;53.50;;;;;;5086381;28;20155;-51
2020/12/02 09:42:57;;;;;;;;;;;23.40;53.60;;;;;;5062914;28;20051;-49
2020/12/02 09:45:43;;;;;;;3.13;1.65;;;23.50;53.80;;;;;;5081096;28;19923;-55
2020/12/02 09:48:17;;;;;;;3.90;1.63;;;23.50;53.60;;;;;;5067609;28;20789;-50
2020/12/02 09:50:42;;;;;;;3.70;1.48;;;23.50;53.40;;;;;;5070315;28;20387;-52
2020/12/02 09:53:23;;;;;;;2.70;1.50;;;23.50;53.70;;;;;;5090742;28;20028;-52
2020/12/02 09:55:50;;;;;;;3.08;1.50;;;23.40;53.80;;;;;;5069519;28;20032;-56
2020/12/02 09:58:16;;;;;;;3.42;1.63;;;23.50;54.20;;;;;;5084632;28;20063;-47
2020/12/02 10:00:42;;;;;;;2.80;1.90;;;23.50;54.10;;;;;;5081953;28;20356;-52
2020/12/02 10:03:35;;;;;;;4.30;1.48;;;23.60;54.00;;;;;;5070997;28;20090;-54
2020/12/02 10:06:26;;;;;;;2.92;1.63;;;23.70;54.30;;;;;;5065588;28;20419;-55
2020/12/02 10:09:13;;;;;;;3.45;1.50;;;23.70;54.60;;;;;;5083574;28;20039;-55
2020/12/02 10:12:31;;;;;;;3.20;1.50;;;23.70;54.20;;;;;;5066715;28;20111;-53
2020/12/02 10:15:14;;;;;;;3.60;1.45;;;23.70;54.30;;;;;;5071695;28;20032;-53
2020/12/02 10:17:54;;;;;;;2.97;1.42;;;23.70;54.60;;;;;;5078107;28;20562;-53
2020/12/02 10:20:26;;;;;;;5.10;2.35;;;23.70;53.50;;;;;;5073045;28;20613;-51
2020/12/02 10:23:22;;;;;;;4.85;2.45;;;23.60;52.10;;;;;;5070230;28;20031;-54
2020/12/02 10:26:00;;;;;;;3.67;2.15;;;23.60;51.50;;;;;;5085592;28;20028;-49
2020/12/02 10:28:36;;;;;;;3.55;2.13;;;23.60;51.90;;;;;;5094332;28;20076;-52
2020/12/02 10:31:14;;;;;;;2.90;2.00;;;23.50;51.90;;;;;;5087638;28;20032;-50
2020/12/02 10:33:46;;;;;;;4.20;2.10;;;23.50;52.10;;;;;;5094744;28;20024;-52
2020/12/02 10:36:12;;;;;;;3.72;1.70;;;23.50;52.30;;;;;;5091847;28;20122;-54
2020/12/02 10:38:44;;;;;;;3.72;2.00;;;23.60;52.40;;;;;;5092568;28;20028;-53
2020/12/02 10:41:19;;;;;;;3.90;2.00;;;23.60;52.30;;;;;;5097229;28;20035;-49
2020/12/02 10:44:07;;;;;;;2.60;1.63;;;23.60;52.20;;;;;;5088612;28;20036;-52
2020/12/02 10:46:43;;;;;;;3.83;1.90;;;23.60;52.30;;;;;;5084601;28;20383;-54
2020/12/02 10:49:42;;;;;;;3.13;1.67;;;23.60;52.40;;;;;;5080319;28;20024;-58
2020/12/02 10:52:09;;;;;;;3.35;1.80;;;23.60;52.30;;;;;;5077591;28;20522;-56
2020/12/02 10:54:35;;;;;;;3.25;1.80;;;23.60;52.40;;;;;;5084244;28;20061;-51
2020/12/02 10:57:14;;;;;;;3.72;1.98;;;23.60;52.40;;;;;;5083500;28;20328;-53
2020/12/02 10:59:40;;;;;;;3.28;1.75;;;23.60;52.40;;;;;;5086278;28;20020;-50
2020/12/02 11:02:16;;;;;;;4.03;1.70;;;23.60;53.30;;;;;;5081848;28;20049;-51
2020/12/02 11:04:41;;;;;;;4.45;1.73;;;23.70;53.20;;;;;;5078536;28;20064;-53
2020/12/02 11:07:14;;;;;;;2.97;1.80;;;23.70;52.80;;;;;;5077637;28;20056;-47
2020/12/02 11:09:49;;;;;;;2.72;1.63;;;23.70;52.60;;;;;;5085181;28;20089;-52
2020/12/02 11:12:38;;;;;;;4.30;1.60;;;23.70;52.50;;;;;;5078216;28;20024;-51
2020/12/02 11:15:21;;;;;;;2.70;1.60;;;23.70;52.50;;;;;;5087436;28;20063;-56
2020/12/02 11:18:07;;;;;;;3.50;1.60;;;23.70;52.50;;;;;;5082304;28;20111;-49
2020/12/02 11:20:52;;;;;;;2.22;1.50;;;23.70;52.80;;;;;;5080405;28;20093;-54
2020/12/02 11:23:39;;;;;;;2.85;1.60;;;23.70;52.80;;;;;;5074608;28;20039;-56
2020/12/02 11:26:29;;;;;;;4.05;1.70;;;23.70;52.80;;;;;;5070081;28;20041;-57
2020/12/02 11:28:56;;;;;;;2.80;1.60;;;23.70;52.50;;;;;;5076169;28;20419;-54
2020/12/02 11:31:52;;;;;;;2.80;1.70;;;23.70;52.80;;;;;;5081177;28;20475;-54
2020/12/02 11:34:46;;;;;;;3.40;1.77;;;23.80;53.70;;;;;;5084002;28;20028;-53
2020/12/02 11:37:49;;;;;;;2.45;1.35;;;23.80;53.50;;;;;;5094684;28;20050;-54
2020/12/02 11:40:19;;;;;;;3.72;1.70;;;23.80;52.80;;;;;;5075266;28;20125;-51
2020/12/02 11:43:08;;;;;;;2.75;1.35;;;23.80;53.60;;;;;;5076655;28;20066;-55
2020/12/02 11:45:37;;;;;;;3.03;1.50;;;23.80;54.10;;;;;;5077370;28;20062;-52
2020/12/02 11:48:24;;;;;;;2.38;1.40;;;23.90;53.90;;;;;;5089663;28;20364;-57
2020/12/02 11:51:10;;;;;;;2.42;1.30;;;23.90;54.20;;;;;;5069388;28;20104;-48
2020/12/02 11:53:48;;;;;;;2.65;1.60;;;23.90;53.40;;;;;;5068413;28;20375;-51
2020/12/02 11:56:20;;;;;;;2.50;1.40;;;23.90;53.90;;;;;;5089164;28;20067;-57
2020/12/02 11:58:55;;;;;;;4.82;1.40;;;23.90;53.40;;;;;;5075985;28;20030;-50
2020/12/02 12:01:41;;;;;;;2.78;1.30;;;23.90;53.50;;;;;;5083988;28;20577;-56
2020/12/02 12:04:20;;;;;;;2.58;1.50;;;23.90;53.70;;;;;;5084082;28;20036;-52
2020/12/02 12:06:49;;;;;;;;;;;23.90;53.00;;;;;;5088894;28;20537;-56
2020/12/02 12:09:19;;;;;;;2.63;1.50;;;23.90;53.00;;;;;;5081241;28;19930;-55
2020/12/02 12:11:46;;;;;;;3.42;1.42;;;23.90;52.80;;;;;;5080120;28;20135;-55
2020/12/02 12:14:11;;;;;;;2.42;1.30;;;23.90;53.00;;;;;;5071627;28;20043;-53
2020/12/02 12:16:57;;;;;;;3.28;1.40;;;23.90;53.10;;;;;;5072603;28;20024;-55
2020/12/02 12:19:35;;;;;;;2.50;1.50;;;23.90;53.00;;;;;;5074926;28;20426;-53
2020/12/02 12:22:16;;;;;;;2.40;1.50;;;23.90;52.80;;;;;;5085656;28;20055;-55
2020/12/02 12:24:46;;;;;;;2.50;1.40;;;23.90;52.70;;;;;;5077197;28;20124;-57
2020/12/02 12:27:14;;;;;;;2.33;1.40;;;23.90;53.00;;;;;;5082872;28;20751;-51
2020/12/02 12:29:39;;;;;;;2.28;1.52;;;23.90;52.90;;;;;;5082392;28;20423;-54
2020/12/02 12:32:10;;;;;;;3.33;1.25;;;23.90;52.90;;;;;;5077003;28;20028;-51
2020/12/02 12:34:46;;;;;;;3.47;1.40;;;23.90;53.40;;;;;;5080332;28;20039;-52
2020/12/02 12:37:29;;;;;;;2.67;1.42;;;24.00;53.20;;;;;;5077298;28;20403;-55
2020/12/02 12:40:03;;;;;;;2.50;1.50;;;23.90;52.70;;;;;;5075702;28;20060;-56
2020/12/02 12:42:31;;;;;;;2.40;1.48;;;24.00;52.90;;;;;;5078899;28;20063;-53
2020/12/02 12:45:02;;;;;;;2.30;1.50;;;24.00;52.90;;;;;;5070870;28;20040;-56
2020/12/02 12:47:37;;;;;;;2.38;1.33;;;24.00;53.10;;;;;;5086768;28;20046;-51
2020/12/02 12:50:05;;;;;;;2.50;1.30;;;24.00;53.80;;;;;;5072861;28;20024;-54
2020/12/02 12:52:34;;;;;;;2.47;1.45;;;24.00;53.00;;;;;;5073384;28;20040;-53
2020/12/02 12:55:00;;;;;;;2.47;1.40;;;24.10;54.10;;;;;;5084862;28;20039;-57
2020/12/02 12:57:28;;;;;;;3.30;1.40;;;24.10;53.80;;;;;;5082734;28;20028;-51
2020/12/02 12:59:57;;;;;;;2.30;1.30;;;24.10;53.90;;;;;;5070831;28;20906;-56
2020/12/02 13:02:30;;;;;;;3.25;1.52;;;24.10;54.00;;;;;;5068756;28;20189;-58
2020/12/02 13:04:56;;;;;;;2.30;1.20;;;24.20;53.80;;;;;;5068370;28;20072;-50
2020/12/02 13:07:26;;;;;;;3.50;1.23;;;24.20;53.90;;;;;;5080112;28;20046;-53
2020/12/02 13:10:24;;;;;;;2.28;1.40;;;24.20;53.30;;;;;;5075266;28;20020;-53
2020/12/02 13:13:27;;;;;;;2.35;1.27;;;24.10;53.70;;;;;;5081247;28;20120;-49
2020/12/02 13:16:04;;;;;;;3.03;1.30;;;24.20;54.30;;;;;;5078870;28;20147;-52
2020/12/02 13:19:05;;;;;;;2.08;1.20;;;24.20;54.20;;;;;;5082226;28;20036;-50
2020/12/02 13:21:59;;;;;;;2.63;1.23;;;24.20;54.80;;;;;;5073672;28;20075;-52